createdAt,value
2022-12-16T00:01:39.763Z,2.52
2022-12-16T00:04:07.522Z,2.50
2022-12-16T00:06:36.187Z,2.56
2022-12-16T00:10:00.985Z,2.58
2022-12-16T00:12:47.118Z,2.36
2022-12-16T00:15:15.040Z,2.39
2022-12-16T00:17:42.649Z,2.43
2022-12-16T00:20:10.963Z,2.26
2022-12-16T00:22:38.517Z,2.33
2022-12-16T00:25:08.700Z,2.39
2022-12-16T00:27:36.498Z,2.33
2022-12-16T00:30:04.750Z,2.36
2022-12-16T00:32:36.435Z,2.44
2022-12-16T00:35:04.151Z,2.48
2022-12-16T00:37:32.902Z,2.47
2022-12-16T00:40:01.160Z,2.44
2022-12-16T00:42:29.138Z,2.46
2022-12-16T00:44:56.807Z,2.50
2022-12-16T00:47:24.411Z,2.48
2022-12-16T00:49:52.047Z,2.47
2022-12-16T00:52:19.551Z,2.48
2022-12-16T00:54:47.633Z,2.45
2022-12-16T00:57:15.674Z,2.41
2022-12-16T00:59:43.396Z,2.32
2022-12-16T01:02:11.360Z,2.27
2022-12-16T01:04:39.585Z,2.22
2022-12-16T01:07:07.435Z,2.20
2022-12-16T01:09:38.935Z,2.13
2022-12-16T01:12:09.299Z,2.08
2022-12-16T01:14:37.052Z,2.02
2022-12-16T01:17:06.519Z,2.07
2022-12-16T01:19:34.266Z,2.06
2022-12-16T01:22:01.835Z,1.99
2022-12-16T01:24:29.852Z,1.89
2022-12-16T01:26:57.496Z,1.70
2022-12-16T01:29:25.761Z,1.74
2022-12-16T01:31:53.382Z,1.71
2022-12-16T01:34:24.108Z,1.71
2022-12-16T01:36:51.662Z,1.64
2022-12-16T01:39:19.950Z,1.63
2022-12-16T01:41:47.586Z,1.59
2022-12-16T01:44:17.306Z,1.55
2022-12-16T01:46:56.508Z,1.53
2022-12-16T01:49:26.168Z,1.48
2022-12-16T01:51:55.429Z,1.45
2022-12-16T01:54:25.894Z,1.42
2022-12-16T01:57:01.147Z,1.41
2022-12-16T01:59:29.292Z,1.39
2022-12-16T02:01:57.577Z,1.39
2022-12-16T02:04:25.320Z,1.40
2022-12-16T02:06:52.935Z,1.41
2022-12-16T02:09:22.723Z,1.41
2022-12-16T02:11:59.688Z,1.40
2022-12-16T02:14:58.110Z,1.38
2022-12-16T02:17:35.248Z,1.29
2022-12-16T02:20:14.759Z,1.27
2022-12-16T02:22:51.365Z,1.23
2022-12-16T02:25:51.604Z,1.14
2022-12-16T02:28:29.246Z,1.05
2022-12-16T02:31:20.193Z,1.00
2022-12-16T02:34:08.723Z,0.93
2022-12-16T02:36:57.440Z,0.88
2022-12-16T02:39:36.068Z,0.84
2022-12-16T02:42:30.313Z,0.77
2022-12-16T02:45:01.920Z,0.71
2022-12-16T02:47:30.219Z,0.72
2022-12-16T02:49:57.913Z,0.68
2022-12-16T02:52:27.411Z,0.60
2022-12-16T02:54:58.040Z,0.61
2022-12-16T02:57:31.640Z,0.65
2022-12-16T03:00:09.425Z,0.66
2022-12-16T03:03:02.739Z,0.66
2022-12-16T03:05:42.811Z,0.75
2022-12-16T03:08:16.236Z,0.76
2022-12-16T03:10:53.235Z,0.71
2022-12-16T03:13:23.670Z,0.78
2022-12-16T03:15:52.807Z,0.83
2022-12-16T03:18:20.713Z,0.90
2022-12-16T03:20:52.707Z,0.98
2022-12-16T03:23:39.922Z,0.99
2022-12-16T03:26:10.992Z,0.99
2022-12-16T03:28:45.986Z,1.01
2022-12-16T03:31:26.742Z,0.97
2022-12-16T03:34:04.087Z,0.95
2022-12-16T03:36:32.020Z,0.90
2022-12-16T03:38:59.992Z,0.92
2022-12-16T03:41:27.620Z,0.92
2022-12-16T03:43:55.972Z,0.87
2022-12-16T03:46:23.846Z,0.99
2022-12-16T03:48:52.126Z,1.09
2022-12-16T03:51:21.495Z,1.15
2022-12-16T03:53:49.146Z,1.23
2022-12-16T03:56:16.721Z,1.34
2022-12-16T03:58:47.173Z,1.41
2022-12-16T04:01:15.201Z,1.48
2022-12-16T04:03:42.943Z,1.50
2022-12-16T04:06:11.890Z,1.60
2022-12-16T04:08:39.837Z,1.62
2022-12-16T04:11:27.472Z,1.66
2022-12-16T04:14:13.445Z,1.70
2022-12-16T04:16:59.455Z,1.76
2022-12-16T04:19:50.744Z,1.76
2022-12-16T04:22:44.042Z,1.75
2022-12-16T04:25:19.678Z,1.81
2022-12-16T04:27:47.292Z,1.83
2022-12-16T04:30:22.135Z,1.91
2022-12-16T04:33:19.749Z,1.96
2022-12-16T04:36:05.767Z,1.98
2022-12-16T04:38:51.939Z,1.99
2022-12-16T04:41:38.304Z,2.05
2022-12-16T04:44:24.514Z,2.08
2022-12-16T04:47:12.962Z,2.10
2022-12-16T04:49:59.175Z,2.17
2022-12-16T04:52:45.193Z,2.21
2022-12-16T04:55:31.284Z,2.18
2022-12-16T04:58:18.755Z,2.22
2022-12-16T05:01:05.941Z,2.21
2022-12-16T05:03:53.240Z,2.25
2022-12-16T05:06:39.422Z,2.30
2022-12-16T05:09:25.887Z,2.30
2022-12-16T05:12:12.209Z,2.31
2022-12-16T05:14:58.411Z,2.29
2022-12-16T05:17:44.495Z,2.33
2022-12-16T05:20:30.505Z,2.30
2022-12-16T05:23:16.504Z,2.35
2022-12-16T05:26:03.321Z,2.43
2022-12-16T05:28:50.395Z,2.47
2022-12-16T05:31:36.421Z,2.54
2022-12-16T05:34:22.521Z,2.57
2022-12-16T05:37:08.545Z,2.57
2022-12-16T05:39:54.770Z,2.62
2022-12-16T05:42:40.977Z,2.63
2022-12-16T05:45:27.136Z,2.64
2022-12-16T05:48:13.536Z,2.64
2022-12-16T05:50:59.635Z,2.69
2022-12-16T05:53:45.637Z,2.72
2022-12-16T05:56:31.860Z,2.71
2022-12-16T05:59:18.390Z,2.71
2022-12-16T06:02:04.593Z,2.75
2022-12-16T06:04:50.976Z,2.76
2022-12-16T06:07:37.185Z,2.85
2022-12-16T06:10:23.926Z,2.91
2022-12-16T06:13:10.310Z,2.94
2022-12-16T06:15:56.501Z,2.95
2022-12-16T06:18:43.023Z,2.98
2022-12-16T06:21:29.265Z,2.99
2022-12-16T06:24:15.634Z,3.02
2022-12-16T06:27:01.569Z,3.06
2022-12-16T06:29:47.835Z,3.14
2022-12-16T06:32:33.887Z,3.23
2022-12-16T06:35:20.592Z,3.33
2022-12-16T06:38:07.195Z,3.39
2022-12-16T06:40:53.532Z,3.38
2022-12-16T06:43:42.418Z,3.44
2022-12-16T06:46:28.795Z,3.45
2022-12-16T06:49:22.761Z,3.48
2022-12-16T06:52:08.920Z,3.53
2022-12-16T06:55:02.770Z,3.60
2022-12-16T06:57:49.265Z,3.65
2022-12-16T07:00:35.478Z,3.69
2022-12-16T07:03:23.416Z,3.75
2022-12-16T07:06:30.148Z,3.74
